sensor_id;sensor_type;location;lat;lon;timestamp;pressure;altitude;pressure_sealevel;temperature;humidity
50123;BME280;36021;48.670;6.184;2022-10-31T00:01:54;99467.06;;;15.53;100.00
50123;BME280;36021;48.670;6.184;2022-10-31T00:04:22;99458.13;;;15.42;100.00
50123;BME280;36021;48.670;6.184;2022-10-31T00:06:48;99454.09;;;15.48;100.00
50123;BME280;36021;48.670;6.184;2022-10-31T00:09:13;99460.88;;;15.56;100.00
50123;BME280;36021;48.670;6.184;2022-10-31T00:11:39;99469.88;;;15.61;100.00
50123;BME280;36021;48.670;6.184;2022-10-31T00:14:05;99470.91;;;15.66;100.00
50123;BME280;36021;48.670;6.184;2022-10-31T00:16:30;99467.56;;;15.55;100.00
50123;BME280;36021;48.670;6.184;2022-10-31T00:18:59;99458.94;;;15.43;100.00
50123;BME280;36021;48.670;6.184;2022-10-31T00:21:25;99461.53;;;15.39;100.00
50123;BME280;36021;48.670;6.184;2022-10-31T00:23:52;99460.75;;;15.25;100.00
50123;BME280;36021;48.670;6.184;2022-10-31T00:26:18;99477.81;;;15.10;100.00
50123;BME280;36021;48.670;6.184;2022-10-31T00:28:44;99472.06;;;15.06;100.00
50123;BME280;36021;48.670;6.184;2022-10-31T00:31:11;99473.13;;;15.19;100.00
50123;BME280;36021;48.670;6.184;2022-10-31T00:33:38;99477.94;;;15.05;100.00
50123;BME280;36021;48.670;6.184;2022-10-31T00:36:06;99476.72;;;14.97;100.00
50123;BME280;36021;48.670;6.184;2022-10-31T00:38:32;99481.72;;;14.95;100.00
50123;BME280;36021;48.670;6.184;2022-10-31T00:40:58;99476.19;;;14.95;100.00
50123;BME280;36021;48.670;6.184;2022-10-31T00:43:24;99471.19;;;14.84;100.00
50123;BME280;36021;48.670;6.184;2022-10-31T00:45:50;99477.59;;;14.57;100.00
50123;BME280;36021;48.670;6.184;2022-10-31T00:48:16;99476.19;;;14.46;100.00
50123;BME280;36021;48.670;6.184;2022-10-31T00:50:41;99477.81;;;14.47;100.00
50123;BME280;36021;48.670;6.184;2022-10-31T00:53:07;99479.75;;;14.46;100.00
50123;BME280;36021;48.670;6.184;2022-10-31T00:55:33;99481.31;;;14.52;100.00
50123;BME280;36021;48.670;6.184;2022-10-31T00:57:59;99476.06;;;14.51;100.00
50123;BME280;36021;48.670;6.184;2022-10-31T01:00:25;99466.19;;;14.72;100.00
50123;BME280;36021;48.670;6.184;2022-10-31T01:02:51;99467.78;;;14.87;100.00
50123;BME280;36021;48.670;6.184;2022-10-31T01:05:19;99463.03;;;15.01;100.00
50123;BME280;36021;48.670;6.184;2022-10-31T01:07:45;99461.28;;;15.05;100.00
50123;BME280;36021;48.670;6.184;2022-10-31T01:10:11;99456.16;;;14.98;100.00
50123;BME280;36021;48.670;6.184;2022-10-31T01:12:42;99455.88;;;15.08;100.00
50123;BME280;36021;48.670;6.184;2022-10-31T01:15:11;99454.03;;;15.18;100.00
50123;BME280;36021;48.670;6.184;2022-10-31T01:17:37;99454.06;;;15.04;100.00
50123;BME280;36021;48.670;6.184;2022-10-31T01:20:04;99457.25;;;15.11;100.00
50123;BME280;36021;48.670;6.184;2022-10-31T01:22:30;99457.97;;;15.03;100.00
50123;BME280;36021;48.670;6.184;2022-10-31T01:24:59;99457.25;;;15.11;100.00
50123;BME280;36021;48.670;6.184;2022-10-31T01:27:25;99452.56;;;15.20;100.00
50123;BME280;36021;48.670;6.184;2022-10-31T01:29:50;99457.50;;;15.23;100.00
50123;BME280;36021;48.670;6.184;2022-10-31T01:32:16;99443.84;;;15.13;100.00
50123;BME280;36021;48.670;6.184;2022-10-31T01:34:41;99441.06;;;15.13;100.00
50123;BME280;36021;48.670;6.184;2022-10-31T01:37:07;99451.41;;;14.99;100.00
50123;BME280;36021;48.670;6.184;2022-10-31T01:39:33;99452.75;;;15.01;100.00
50123;BME280;36021;48.670;6.184;2022-10-31T01:41:58;99452.50;;;15.11;100.00
50123;BME280;36021;48.670;6.184;2022-10-31T01:49:32;99441.56;;;15.15;100.00
50123;BME280;36021;48.670;6.184;2022-10-31T01:54:39;99447.03;;;15.20;100.00
50123;BME280;36021;48.670;6.184;2022-10-31T01:57:08;99438.53;;;15.25;100.00
50123;BME280;36021;48.670;6.184;2022-10-31T01:59:41;99429.72;;;15.23;100.00
50123;BME280;36021;48.670;6.184;2022-10-31T02:02:10;99418.63;;;15.23;100.00
50123;BME280;36021;48.670;6.184;2022-10-31T02:04:37;99416.47;;;15.20;100.00
50123;BME280;36021;48.670;6.184;2022-10-31T02:07:12;99419.25;;;15.20;100.00
50123;BME280;36021;48.670;6.184;2022-10-31T02:09:39;99411.66;;;15.12;100.00
50123;BME280;36021;48.670;6.184;2022-10-31T02:12:08;99408.63;;;15.00;100.00
50123;BME280;36021;48.670;6.184;2022-10-31T02:14:35;99411.53;;;14.95;100.00
50123;BME280;36021;48.670;6.184;2022-10-31T02:17:03;99413.59;;;14.89;100.00
50123;BME280;36021;48.670;6.184;2022-10-31T02:22:16;99410.91;;;14.98;100.00
50123;BME280;36021;48.670;6.184;2022-10-31T02:25:02;99396.84;;;14.94;100.00
50123;BME280;36021;48.670;6.184;2022-10-31T02:36:16;99401.81;;;14.48;100.00
50123;BME280;36021;48.670;6.184;2022-10-31T02:42:15;99414.53;;;14.22;100.00
50123;BME280;36021;48.670;6.184;2022-10-31T02:44:55;99410.22;;;14.16;100.00
50123;BME280;36021;48.670;6.184;2022-10-31T02:47:27;99414.25;;;14.23;100.00
50123;BME280;36021;48.670;6.184;2022-10-31T02:50:32;99411.03;;;14.43;100.00
50123;BME280;36021;48.670;6.184;2022-10-31T02:53:00;99406.03;;;14.45;100.00
50123;BME280;36021;48.670;6.184;2022-10-31T02:58:09;99397.69;;;14.32;100.00
50123;BME280;36021;48.670;6.184;2022-10-31T03:06:03;99396.56;;;13.92;100.00
50123;BME280;36021;48.670;6.184;2022-10-31T03:11:05;99410.22;;;14.02;100.00
50123;BME280;36021;48.670;6.184;2022-10-31T03:13:59;99412.28;;;14.10;100.00
50123;BME280;36021;48.670;6.184;2022-10-31T03:16:34;99400.38;;;14.23;100.00
50123;BME280;36021;48.670;6.184;2022-10-31T03:19:06;99402.66;;;14.35;100.00
50123;BME280;36021;48.670;6.184;2022-10-31T03:21:50;99403.56;;;14.44;100.00
50123;BME280;36021;48.670;6.184;2022-10-31T03:24:18;99394.41;;;14.43;100.00
50123;BME280;36021;48.670;6.184;2022-10-31T03:26:50;99397.50;;;14.15;100.00
50123;BME280;36021;48.670;6.184;2022-10-31T03:29:21;99396.47;;;14.10;100.00
50123;BME280;36021;48.670;6.184;2022-10-31T03:31:59;99397.81;;;13.86;100.00
50123;BME280;36021;48.670;6.184;2022-10-31T03:34:28;99396.47;;;13.83;100.00
50123;BME280;36021;48.670;6.184;2022-10-31T03:36:58;99393.19;;;13.95;100.00
50123;BME280;36021;48.670;6.184;2022-10-31T03:39:27;99392.91;;;14.10;100.00
50123;BME280;36021;48.670;6.184;2022-10-31T03:41:58;99389.28;;;14.23;100.00
50123;BME280;36021;48.670;6.184;2022-10-31T03:44:26;99391.84;;;14.33;100.00
50123;BME280;36021;48.670;6.184;2022-10-31T03:46:58;99382.13;;;14.36;100.00
50123;BME280;36021;48.670;6.184;2022-10-31T03:49:24;99376.78;;;14.39;100.00
50123;BME280;36021;48.670;6.184;2022-10-31T03:51:58;99375.31;;;14.42;100.00
50123;BME280;36021;48.670;6.184;2022-10-31T03:54:46;99373.56;;;14.32;100.00
50123;BME280;36021;48.670;6.184;2022-10-31T03:59:51;99379.53;;;13.85;100.00
50123;BME280;36021;48.670;6.184;2022-10-31T04:02:22;99379.84;;;13.70;100.00
50123;BME280;36021;48.670;6.184;2022-10-31T04:04:51;99384.06;;;13.67;100.00
50123;BME280;36021;48.670;6.184;2022-10-31T04:07:18;99379.63;;;13.66;100.00
50123;BME280;36021;48.670;6.184;2022-10-31T04:09:50;99375.31;;;13.60;100.00
50123;BME280;36021;48.670;6.184;2022-10-31T04:12:20;99382.50;;;13.47;100.00
50123;BME280;36021;48.670;6.184;2022-10-31T04:14:52;99381.03;;;13.36;100.00
50123;BME280;36021;48.670;6.184;2022-10-31T04:17:20;99383.78;;;13.36;100.00
50123;BME280;36021;48.670;6.184;2022-10-31T04:19:47;99379.78;;;13.42;100.00
50123;BME280;36021;48.670;6.184;2022-10-31T04:22:14;99377.13;;;13.37;100.00
50123;BME280;36021;48.670;6.184;2022-10-31T04:24:40;99385.94;;;13.39;100.00
50123;BME280;36021;48.670;6.184;2022-10-31T04:27:07;99390.25;;;13.45;100.00
50123;BME280;36021;48.670;6.184;2022-10-31T04:29:33;99387.91;;;13.52;100.00
50123;BME280;36021;48.670;6.184;2022-10-31T04:31:58;99389.03;;;13.51;100.00
50123;BME280;36021;48.670;6.184;2022-10-31T04:34:24;99385.88;;;13.58;100.00
50123;BME280;36021;48.670;6.184;2022-10-31T04:36:50;99390.69;;;13.52;100.00
50123;BME280;36021;48.670;6.184;2022-10-31T04:39:16;99388.03;;;13.47;100.00
50123;BME280;36021;48.670;6.184;2022-10-31T04:42:01;99390.66;;;13.39;100.00
50123;BME280;36021;48.670;6.184;2022-10-31T04:44:26;99392.03;;;13.41;100.00
50123;BME280;36021;48.670;6.184;2022-10-31T04:46:53;99394.13;;;13.31;100.00
50123;BME280;36021;48.670;6.184;2022-10-31T04:49:19;99393.38;;;13.25;100.00
50123;BME280;36021;48.670;6.184;2022-10-31T04:51:44;99380.16;;;13.22;100.00
50123;BME280;36021;48.670;6.184;2022-10-31T04:54:12;99379.16;;;13.32;100.00
50123;BME280;36021;48.670;6.184;2022-10-31T04:57:04;99374.00;;;13.25;100.00
50123;BME280;36021;48.670;6.184;2022-10-31T04:59:31;99378.44;;;13.26;100.00
50123;BME280;36021;48.670;6.184;2022-10-31T05:01:58;99378.53;;;13.21;100.00
50123;BME280;36021;48.670;6.184;2022-10-31T05:04:40;99378.97;;;13.42;100.00
50123;BME280;36021;48.670;6.184;2022-10-31T05:07:06;99369.38;;;13.53;100.00
50123;BME280;36021;48.670;6.184;2022-10-31T05:09:32;99373.03;;;13.48;100.00
50123;BME280;36021;48.670;6.184;2022-10-31T05:11:58;99367.72;;;13.52;100.00
50123;BME280;36021;48.670;6.184;2022-10-31T05:14:44;99367.22;;;13.50;100.00
50123;BME280;36021;48.670;6.184;2022-10-31T05:17:28;99364.97;;;13.66;100.00
50123;BME280;36021;48.670;6.184;2022-10-31T05:20:30;99360.75;;;13.54;100.00
50123;BME280;36021;48.670;6.184;2022-10-31T05:23:19;99357.25;;;13.49;100.00
50123;BME280;36021;48.670;6.184;2022-10-31T05:25:46;99353.88;;;13.52;100.00
50123;BME280;36021;48.670;6.184;2022-10-31T05:28:11;99345.66;;;13.47;100.00
50123;BME280;36021;48.670;6.184;2022-10-31T05:30:37;99344.75;;;13.38;100.00
50123;BME280;36021;48.670;6.184;2022-10-31T05:33:06;99353.13;;;13.33;100.00
50123;BME280;36021;48.670;6.184;2022-10-31T05:35:43;99348.19;;;13.30;100.00
50123;BME280;36021;48.670;6.184;2022-10-31T05:38:29;99343.06;;;13.23;100.00
50123;BME280;36021;48.670;6.184;2022-10-31T05:40:59;99349.81;;;13.17;100.00
50123;BME280;36021;48.670;6.184;2022-10-31T05:43:27;99346.75;;;13.32;100.00
50123;BME280;36021;48.670;6.184;2022-10-31T05:45:54;99340.69;;;13.17;100.00
50123;BME280;36021;48.670;6.184;2022-10-31T05:48:39;99336.28;;;13.29;100.00
50123;BME280;36021;48.670;6.184;2022-10-31T05:51:27;99331.59;;;13.30;100.00
50123;BME280;36021;48.670;6.184;2022-10-31T05:53:53;99332.41;;;13.30;100.00
50123;BME280;36021;48.670;6.184;2022-10-31T05:56:20;99335.25;;;13.25;100.00
50123;BME280;36021;48.670;6.184;2022-10-31T05:58:46;99338.75;;;13.17;100.00
50123;BME280;36021;48.670;6.184;2022-10-31T06:01:13;99328.09;;;13.05;100.00
50123;BME280;36021;48.670;6.184;2022-10-31T06:03:40;99330.69;;;13.02;100.00
50123;BME280;36021;48.670;6.184;2022-10-31T06:06:09;99327.75;;;13.12;100.00
50123;BME280;36021;48.670;6.184;2022-10-31T06:08:37;99329.72;;;13.12;100.00
50123;BME280;36021;48.670;6.184;2022-10-31T06:11:11;99317.09;;;13.19;100.00
50123;BME280;36021;48.670;6.184;2022-10-31T06:13:55;99328.91;;;13.11;100.00
50123;BME280;36021;48.670;6.184;2022-10-31T06:16:25;99336.66;;;13.09;100.00
50123;BME280;36021;48.670;6.184;2022-10-31T06:18:53;99329.66;;;12.98;100.00
50123;BME280;36021;48.670;6.184;2022-10-31T06:21:18;99323.38;;;12.92;100.00
50123;BME280;36021;48.670;6.184;2022-10-31T06:23:46;99327.56;;;12.90;100.00
50123;BME280;36021;48.670;6.184;2022-10-31T06:26:28;99326.31;;;12.82;100.00
50123;BME280;36021;48.670;6.184;2022-10-31T06:28:54;99323.69;;;12.91;100.00
50123;BME280;36021;48.670;6.184;2022-10-31T06:31:36;99326.34;;;12.96;100.00
50123;BME280;36021;48.670;6.184;2022-10-31T06:34:02;99330.63;;;12.88;100.00
50123;BME280;36021;48.670;6.184;2022-10-31T06:36:28;99335.41;;;12.83;100.00
50123;BME280;36021;48.670;6.184;2022-10-31T06:38:54;99330.81;;;12.78;100.00
50123;BME280;36021;48.670;6.184;2022-10-31T06:41:22;99337.16;;;12.79;100.00
50123;BME280;36021;48.670;6.184;2022-10-31T06:43:48;99332.16;;;12.81;100.00
50123;BME280;36021;48.670;6.184;2022-10-31T06:46:47;99334.91;;;12.81;100.00
50123;BME280;36021;48.670;6.184;2022-10-31T06:49:35;99336.03;;;12.80;100.00
50123;BME280;36021;48.670;6.184;2022-10-31T06:52:06;99340.88;;;12.88;100.00
50123;BME280;36021;48.670;6.184;2022-10-31T06:54:32;99353.41;;;12.99;100.00
50123;BME280;36021;48.670;6.184;2022-10-31T06:56:59;99341.50;;;12.85;100.00
50123;BME280;36021;48.670;6.184;2022-10-31T06:59:26;99345.06;;;12.85;100.00
50123;BME280;36021;48.670;6.184;2022-10-31T07:02:11;99348.06;;;12.89;100.00
50123;BME280;36021;48.670;6.184;2022-10-31T07:04:39;99351.47;;;12.99;100.00
50123;BME280;36021;48.670;6.184;2022-10-31T07:07:05;99333.25;;;12.98;100.00
50123;BME280;36021;48.670;6.184;2022-10-31T07:09:34;99339.88;;;12.97;100.00
50123;BME280;36021;48.670;6.184;2022-10-31T07:12:03;99342.16;;;12.95;100.00
50123;BME280;36021;48.670;6.184;2022-10-31T07:14:35;99345.25;;;13.07;100.00
50123;BME280;36021;48.670;6.184;2022-10-31T07:17:01;99339.50;;;13.04;100.00
50123;BME280;36021;48.670;6.184;2022-10-31T07:19:39;99349.94;;;13.07;100.00
50123;BME280;36021;48.670;6.184;2022-10-31T07:22:05;99344.34;;;13.12;100.00
50123;BME280;36021;48.670;6.184;2022-10-31T07:24:33;99342.63;;;13.16;100.00
50123;BME280;36021;48.670;6.184;2022-10-31T07:26:58;99345.94;;;13.18;100.00
50123;BME280;36021;48.670;6.184;2022-10-31T07:29:24;99342.63;;;13.16;100.00
50123;BME280;36021;48.670;6.184;2022-10-31T07:31:49;99346.94;;;13.22;100.00
50123;BME280;36021;48.670;6.184;2022-10-31T07:34:21;99346.31;;;13.25;100.00
50123;BME280;36021;48.670;6.184;2022-10-31T07:37:05;99346.03;;;13.27;100.00
50123;BME280;36021;48.670;6.184;2022-10-31T07:39:31;99348.50;;;13.28;100.00
50123;BME280;36021;48.670;6.184;2022-10-31T07:41:58;99344.53;;;13.34;100.00
50123;BME280;36021;48.670;6.184;2022-10-31T07:44:24;99341.56;;;13.44;100.00
50123;BME280;36021;48.670;6.184;2022-10-31T07:47:12;99338.59;;;13.54;100.00
50123;BME280;36021;48.670;6.184;2022-10-31T07:49:56;99333.59;;;13.70;100.00
50123;BME280;36021;48.670;6.184;2022-10-31T07:52:48;99337.47;;;13.83;100.00
50123;BME280;36021;48.670;6.184;2022-10-31T07:55:42;99326.97;;;14.07;100.00
50123;BME280;36021;48.670;6.184;2022-10-31T07:58:11;99322.34;;;14.16;100.00
50123;BME280;36021;48.670;6.184;2022-10-31T08:00:40;99327.16;;;14.24;100.00
50123;BME280;36021;48.670;6.184;2022-10-31T08:03:12;99319.41;;;14.48;100.00
50123;BME280;36021;48.670;6.184;2022-10-31T08:05:56;99315.97;;;14.87;100.00
50123;BME280;36021;48.670;6.184;2022-10-31T08:08:37;99311.53;;;15.08;100.00
50123;BME280;36021;48.670;6.184;2022-10-31T08:11:03;99318.75;;;15.40;100.00
50123;BME280;36021;48.670;6.184;2022-10-31T08:13:29;99303.69;;;15.41;100.00
50123;BME280;36021;48.670;6.184;2022-10-31T08:15:58;99308.97;;;15.74;100.00
50123;BME280;36021;48.670;6.184;2022-10-31T08:18:29;99303.81;;;16.06;100.00
50123;BME280;36021;48.670;6.184;2022-10-31T08:20:56;99305.91;;;16.01;100.00
50123;BME280;36021;48.670;6.184;2022-10-31T08:23:22;99292.88;;;16.19;100.00
50123;BME280;36021;48.670;6.184;2022-10-31T08:25:48;99286.16;;;16.37;100.00
50123;BME280;36021;48.670;6.184;2022-10-31T08:28:14;99288.28;;;17.00;100.00
50123;BME280;36021;48.670;6.184;2022-10-31T08:30:42;99277.53;;;17.36;100.00
50123;BME280;36021;48.670;6.184;2022-10-31T08:33:26;99273.94;;;17.36;100.00
50123;BME280;36021;48.670;6.184;2022-10-31T08:36:14;99267.84;;;17.80;100.00
50123;BME280;36021;48.670;6.184;2022-10-31T08:39:00;99273.41;;;17.80;100.00
50123;BME280;36021;48.670;6.184;2022-10-31T08:41:27;99266.16;;;17.88;100.00
50123;BME280;36021;48.670;6.184;2022-10-31T08:43:53;99272.13;;;17.31;100.00
50123;BME280;36021;48.670;6.184;2022-10-31T08:46:20;99271.88;;;17.62;100.00
50123;BME280;36021;48.670;6.184;2022-10-31T08:48:49;99269.53;;;17.73;100.00
50123;BME280;36021;48.670;6.184;2022-10-31T08:51:17;99260.28;;;17.60;100.00
50123;BME280;36021;48.670;6.184;2022-10-31T08:53:42;99259.44;;;17.51;100.00
50123;BME280;36021;48.670;6.184;2022-10-31T08:56:28;99257.81;;;17.50;100.00
50123;BME280;36021;48.670;6.184;2022-10-31T08:58:56;99261.72;;;17.57;100.00
50123;BME280;36021;48.670;6.184;2022-10-31T09:01:48;99254.72;;;17.43;100.00
50123;BME280;36021;48.670;6.184;2022-10-31T09:04:14;99251.13;;;17.42;100.00
50123;BME280;36021;48.670;6.184;2022-10-31T09:06:40;99245.19;;;17.52;100.00
50123;BME280;36021;48.670;6.184;2022-10-31T09:09:06;99247.09;;;17.69;100.00
50123;BME280;36021;48.670;6.184;2022-10-31T09:11:32;99249.97;;;16.97;100.00
50123;BME280;36021;48.670;6.184;2022-10-31T09:14:11;99237.66;;;17.06;100.00
50123;BME280;36021;48.670;6.184;2022-10-31T09:16:59;99247.63;;;17.54;100.00
50123;BME280;36021;48.670;6.184;2022-10-31T09:19:45;99241.34;;;16.64;100.00
50123;BME280;36021;48.670;6.184;2022-10-31T09:22:10;99236.88;;;16.89;100.00
50123;BME280;36021;48.670;6.184;2022-10-31T09:24:37;99236.59;;;16.64;100.00
50123;BME280;36021;48.670;6.184;2022-10-31T09:27:03;99250.66;;;16.25;100.00
50123;BME280;36021;48.670;6.184;2022-10-31T09:29:30;99246.59;;;16.57;100.00
50123;BME280;36021;48.670;6.184;2022-10-31T09:31:58;99251.00;;;16.66;100.00
50123;BME280;36021;48.670;6.184;2022-10-31T09:34:28;99249.72;;;16.55;100.00
50123;BME280;36021;48.670;6.184;2022-10-31T09:37:11;99245.44;;;16.32;100.00
50123;BME280;36021;48.670;6.184;2022-10-31T09:39:38;99239.84;;;16.41;100.00
50123;BME280;36021;48.670;6.184;2022-10-31T09:42:45;99236.59;;;16.47;100.00
50123;BME280;36021;48.670;6.184;2022-10-31T09:45:29;99241.34;;;16.21;100.00
50123;BME280;36021;48.670;6.184;2022-10-31T09:53:39;99241.78;;;15.89;100.00
50123;BME280;36021;48.670;6.184;2022-10-31T09:56:11;99240.19;;;15.96;100.00
50123;BME280;36021;48.670;6.184;2022-10-31T09:58:50;99244.41;;;15.94;100.00
50123;BME280;36021;48.670;6.184;2022-10-31T10:01:33;99231.66;;;15.93;100.00
50123;BME280;36021;48.670;6.184;2022-10-31T10:04:10;99241.78;;;15.89;100.00
50123;BME280;36021;48.670;6.184;2022-10-31T10:06:58;99244.09;;;15.87;100.00
50123;BME280;36021;48.670;6.184;2022-10-31T10:09:57;99244.81;;;15.61;100.00
50123;BME280;36021;48.670;6.184;2022-10-31T10:15:58;99252.56;;;15.82;100.00
50123;BME280;36021;48.670;6.184;2022-10-31T10:18:38;99233.28;;;15.94;100.00
50123;BME280;36021;48.670;6.184;2022-10-31T10:29:44;99252.44;;;15.87;100.00
50123;BME280;36021;48.670;6.184;2022-10-31T10:32:37;99254.38;;;15.86;100.00
50123;BME280;36021;48.670;6.184;2022-10-31T10:35:19;99250.13;;;15.89;100.00
50123;BME280;36021;48.670;6.184;2022-10-31T10:37:49;99244.75;;;16.01;100.00
50123;BME280;36021;48.670;6.184;2022-10-31T10:40:20;99248.03;;;16.03;100.00
50123;BME280;36021;48.670;6.184;2022-10-31T10:42:59;99256.50;;;15.98;100.00
50123;BME280;36021;48.670;6.184;2022-10-31T10:58:02;99203.19;;;18.82;100.00
50123;BME280;36021;48.670;6.184;2022-10-31T11:00:40;99197.50;;;19.71;100.00
50123;BME280;36021;48.670;6.184;2022-10-31T11:03:08;99193.88;;;19.83;100.00
50123;BME280;36021;48.670;6.184;2022-10-31T11:05:41;99195.63;;;19.63;100.00
50123;BME280;36021;48.670;6.184;2022-10-31T11:08:23;99193.88;;;19.35;100.00
50123;BME280;36021;48.670;6.184;2022-10-31T11:13:44;99175.09;;;18.99;100.00
50123;BME280;36021;48.670;6.184;2022-10-31T11:16:13;99172.53;;;18.94;100.00
50123;BME280;36021;48.670;6.184;2022-10-31T11:18:46;99168.59;;;18.62;100.00
50123;BME280;36021;48.670;6.184;2022-10-31T11:23:48;99161.09;;;18.21;100.00
50123;BME280;36021;48.670;6.184;2022-10-31T11:26:19;99159.47;;;17.99;100.00
50123;BME280;36021;48.670;6.184;2022-10-31T11:28:56;99147.31;;;18.16;100.00
50123;BME280;36021;48.670;6.184;2022-10-31T11:31:22;99144.47;;;18.04;100.00
50123;BME280;36021;48.670;6.184;2022-10-31T11:33:54;99137.81;;;18.17;100.00
50123;BME280;36021;48.670;6.184;2022-10-31T11:36:29;99141.63;;;17.71;100.00
50123;BME280;36021;48.670;6.184;2022-10-31T11:38:55;99160.72;;;17.60;100.00
50123;BME280;36021;48.670;6.184;2022-10-31T11:41:29;99145.69;;;17.74;100.00
50123;BME280;36021;48.670;6.184;2022-10-31T11:44:02;99134.00;;;17.59;100.00
50123;BME280;36021;48.670;6.184;2022-10-31T11:46:34;99142.44;;;17.42;100.00
50123;BME280;36021;48.670;6.184;2022-10-31T11:49:01;99134.75;;;17.39;100.00
50123;BME280;36021;48.670;6.184;2022-10-31T11:51:29;99126.19;;;17.44;100.00
50123;BME280;36021;48.670;6.184;2022-10-31T11:53:59;99122.19;;;17.33;100.00
50123;BME280;36021;48.670;6.184;2022-10-31T11:56:26;99115.13;;;17.36;100.00
50123;BME280;36021;48.670;6.184;2022-10-31T11:59:02;99116.91;;;17.40;100.00
50123;BME280;36021;48.670;6.184;2022-10-31T12:01:31;99104.16;;;17.60;100.00
50123;BME280;36021;48.670;6.184;2022-10-31T12:08:53;99091.72;;;17.57;100.00
50123;BME280;36021;48.670;6.184;2022-10-31T12:22:12;99092.50;;;17.08;100.00
50123;BME280;36021;48.670;6.184;2022-10-31T12:30:24;99060.81;;;17.21;100.00
50123;BME280;36021;48.670;6.184;2022-10-31T12:44:23;99036.47;;;17.51;100.00
50123;BME280;36021;48.670;6.184;2022-10-31T12:49:54;99026.22;;;17.84;100.00
50123;BME280;36021;48.670;6.184;2022-10-31T12:52:41;99025.47;;;17.96;100.00
50123;BME280;36021;48.670;6.184;2022-10-31T12:55:21;99023.66;;;18.12;100.00
50123;BME280;36021;48.670;6.184;2022-10-31T12:57:58;99010.66;;;18.28;100.00
50123;BME280;36021;48.670;6.184;2022-10-31T13:00:26;99003.81;;;18.38;100.00
50123;BME280;36021;48.670;6.184;2022-10-31T13:03:22;98997.53;;;18.41;100.00
50123;BME280;36021;48.670;6.184;2022-10-31T13:05:57;98991.38;;;18.47;100.00
50123;BME280;36021;48.670;6.184;2022-10-31T13:08:36;98989.13;;;18.61;100.00
50123;BME280;36021;48.670;6.184;2022-10-31T13:11:15;98979.59;;;19.27;100.00
50123;BME280;36021;48.670;6.184;2022-10-31T13:14:02;98967.97;;;20.08;100.00
50123;BME280;36021;48.670;6.184;2022-10-31T13:16:34;98962.91;;;20.41;100.00
50123;BME280;36021;48.670;6.184;2022-10-31T13:19:05;98960.09;;;21.23;100.00
50123;BME280;36021;48.670;6.184;2022-10-31T13:21:45;98945.56;;;21.56;100.00
50123;BME280;36021;48.670;6.184;2022-10-31T13:25:19;98943.69;;;21.63;100.00
50123;BME280;36021;48.670;6.184;2022-10-31T13:27:23;98951.72;;;21.84;100.00
50123;BME280;36021;48.670;6.184;2022-10-31T13:30:02;98940.69;;;22.14;100.00
50123;BME280;36021;48.670;6.184;2022-10-31T13:32:37;98940.19;;;22.54;100.00
50123;BME280;36021;48.670;6.184;2022-10-31T13:35:12;98941.13;;;22.16;100.00
50123;BME280;36021;48.670;6.184;2022-10-31T13:41:31;98921.94;;;22.18;100.00
50123;BME280;36021;48.670;6.184;2022-10-31T13:43:59;98931.59;;;22.66;100.00
50123;BME280;36021;48.670;6.184;2022-10-31T13:46:35;98927.84;;;22.84;100.00
50123;BME280;36021;48.670;6.184;2022-10-31T13:49:01;98922.69;;;22.87;100.00
50123;BME280;36021;48.670;6.184;2022-10-31T13:51:32;98915.97;;;22.46;100.00
50123;BME280;36021;48.670;6.184;2022-10-31T13:54:05;98917.72;;;22.76;100.00
50123;BME280;36021;48.670;6.184;2022-10-31T13:56:34;98910.00;;;22.24;100.00
50123;BME280;36021;48.670;6.184;2022-10-31T14:01:35;98915.88;;;21.16;100.00
50123;BME280;36021;48.670;6.184;2022-10-31T14:04:13;98914.75;;;21.40;100.00
50123;BME280;36021;48.670;6.184;2022-10-31T14:06:42;98921.69;;;20.57;100.00
50123;BME280;36021;48.670;6.184;2022-10-31T14:09:25;98914.75;;;20.36;100.00
50123;BME280;36021;48.670;6.184;2022-10-31T14:11:52;98909.03;;;20.63;100.00
50123;BME280;36021;48.670;6.184;2022-10-31T14:14:19;98912.34;;;20.69;100.00
50123;BME280;36021;48.670;6.184;2022-10-31T14:16:46;98914.06;;;20.73;100.00
50123;BME280;36021;48.670;6.184;2022-10-31T14:19:19;98915.97;;;20.69;100.00
50123;BME280;36021;48.670;6.184;2022-10-31T14:21:47;98917.91;;;20.50;100.00
50123;BME280;36021;48.670;6.184;2022-10-31T14:26:58;98909.78;;;19.70;100.00
50123;BME280;36021;48.670;6.184;2022-10-31T14:29:32;98919.47;;;19.72;100.00
50123;BME280;36021;48.670;6.184;2022-10-31T14:34:40;98907.19;;;19.93;100.00
50123;BME280;36021;48.670;6.184;2022-10-31T14:37:28;98914.81;;;20.08;100.00
50123;BME280;36021;48.670;6.184;2022-10-31T14:40:26;98908.50;;;20.11;100.00
50123;BME280;36021;48.670;6.184;2022-10-31T14:42:57;98908.94;;;19.97;100.00
50123;BME280;36021;48.670;6.184;2022-10-31T14:48:38;98900.63;;;20.01;100.00
50123;BME280;36021;48.670;6.184;2022-10-31T14:51:21;98894.06;;;20.09;100.00
50123;BME280;36021;48.670;6.184;2022-10-31T14:53:52;98895.75;;;20.13;100.00
50123;BME280;36021;48.670;6.184;2022-10-31T14:56:24;98903.25;;;20.25;100.00
50123;BME280;36021;48.670;6.184;2022-10-31T14:58:50;98903.19;;;20.37;100.00
50123;BME280;36021;48.670;6.184;2022-10-31T15:01:25;98909.59;;;20.38;100.00
50123;BME280;36021;48.670;6.184;2022-10-31T15:03:59;98895.22;;;20.08;100.00
50123;BME280;36021;48.670;6.184;2022-10-31T15:06:26;98896.28;;;20.03;100.00
50123;BME280;36021;48.670;6.184;2022-10-31T15:08:55;98901.88;;;19.88;100.00
50123;BME280;36021;48.670;6.184;2022-10-31T15:11:23;98897.41;;;19.99;100.00
50123;BME280;36021;48.670;6.184;2022-10-31T15:13:51;98892.78;;;19.91;100.00
50123;BME280;36021;48.670;6.184;2022-10-31T15:16:27;98889.09;;;20.02;100.00
50123;BME280;36021;48.670;6.184;2022-10-31T15:18:56;98889.16;;;20.06;100.00